createdAt,value
2019-02-05T00:33:26.671Z,89.39
2019-02-05T00:34:26.628Z,89.60
2019-02-05T00:35:26.560Z,89.81
2019-02-05T00:36:26.583Z,89.81
2019-02-05T00:37:26.477Z,89.60
2019-02-05T00:38:26.465Z,89.92
2019-02-05T00:39:26.486Z,89.81
2019-02-05T00:40:26.454Z,90.23
2019-02-05T00:41:26.420Z,90.13
2019-02-05T00:42:26.406Z,90.13
2019-02-05T00:43:26.414Z,90.13
2019-02-05T00:44:26.401Z,89.70
2019-02-05T00:45:26.480Z,89.98
2019-02-05T00:46:26.389Z,89.87
2019-02-05T00:47:26.362Z,89.77
2019-02-05T00:48:26.346Z,89.87
2019-02-05T00:49:26.394Z,89.92
2019-02-05T00:50:26.329Z,89.77
2019-02-05T00:51:26.364Z,90.23
2019-02-05T00:52:26.313Z,90.34
2019-02-05T00:53:26.320Z,90.41
2019-02-05T00:54:26.288Z,90.23
2019-02-05T00:55:26.271Z,90.19
2019-02-05T00:56:26.479Z,89.28
2019-02-05T00:57:26.299Z,88.85
2019-02-05T00:58:26.244Z,89.77
2019-02-05T00:59:26.224Z,89.70
2019-02-05T01:00:26.256Z,89.92
2019-02-05T01:01:26.204Z,90.02
2019-02-05T01:02:26.200Z,90.34
2019-02-05T01:03:26.229Z,90.34
2019-02-05T01:04:26.180Z,89.81
2019-02-05T01:05:26.165Z,89.34
2019-02-05T01:06:26.156Z,89.81
2019-02-05T01:07:26.144Z,89.92
2019-02-05T01:08:26.189Z,89.45
2019-02-05T01:09:26.125Z,88.18
2019-02-05T01:10:26.116Z,89.49
2019-02-05T01:11:26.104Z,89.06
2019-02-05T01:12:26.093Z,89.87
2019-02-05T01:13:26.086Z,90.19
2019-02-05T01:14:26.126Z,89.03
2019-02-05T01:15:26.066Z,88.92
2019-02-05T01:16:26.057Z,89.56
2019-02-05T01:17:26.045Z,89.45
2019-02-05T01:18:26.032Z,89.77
2019-02-05T01:19:26.029Z,89.60
2019-02-05T01:20:26.055Z,89.34
2019-02-05T01:21:26.017Z,89.24
2019-02-05T01:22:25.998Z,89.70
2019-02-05T01:23:26.023Z,87.96
2019-02-05T01:24:25.978Z,88.07
2019-02-05T01:25:25.958Z,88.53
2019-02-05T01:26:29.049Z,89.49
2019-02-05T01:27:26.937Z,89.28
2019-02-05T01:28:25.950Z,89.17
2019-02-05T01:29:25.961Z,89.06
2019-02-05T01:30:25.913Z,88.85
2019-02-05T01:31:25.897Z,89.28
2019-02-05T01:32:25.898Z,88.96
2019-02-05T01:33:25.884Z,89.49
2019-02-05T01:34:25.881Z,89.06
2019-02-05T01:35:26.439Z,89.70
2019-02-05T01:36:25.886Z,89.28
2019-02-05T01:37:25.842Z,89.28
2019-02-05T01:38:26.070Z,89.49
2019-02-05T01:39:25.811Z,89.28
2019-02-05T01:40:25.800Z,89.39
2019-02-05T01:41:25.837Z,89.49
2019-02-05T01:42:25.783Z,89.81
2019-02-05T01:43:25.776Z,89.39
2019-02-05T01:44:25.778Z,89.28
2019-02-05T01:45:25.760Z,87.75
2019-02-05T01:46:25.739Z,86.05
2019-02-05T01:47:25.764Z,85.48
2019-02-05T01:48:25.732Z,85.94
2019-02-05T01:49:25.711Z,86.58
2019-02-05T01:50:25.698Z,87.32
2019-02-05T01:51:25.717Z,87.96
2019-02-05T01:52:25.681Z,88.39
2019-02-05T01:53:25.711Z,88.18
2019-02-05T01:54:25.661Z,88.81
2019-02-05T01:55:25.652Z,88.53
2019-02-05T01:56:25.637Z,89.24
2019-02-05T01:57:25.647Z,89.03
2019-02-05T01:58:25.620Z,88.85
2019-02-05T01:59:25.644Z,88.96
2019-02-05T02:00:25.594Z,89.28
2019-02-05T02:01:25.583Z,89.06
2019-02-05T02:02:25.578Z,89.17
2019-02-05T02:03:25.584Z,88.96
2019-02-05T02:04:25.558Z,89.17
2019-02-05T02:05:25.583Z,89.06
2019-02-05T02:06:25.536Z,89.06
2019-02-05T02:07:25.525Z,88.64
2019-02-05T02:08:25.526Z,88.43
2019-02-05T02:09:25.782Z,88.39
2019-02-05T02:10:25.503Z,88.71
2019-02-05T02:11:25.533Z,88.11
2019-02-05T02:12:25.479Z,88.85
2019-02-05T02:13:25.466Z,88.43
2019-02-05T02:14:25.467Z,89.17
2019-02-05T02:15:25.464Z,89.06
2019-02-05T02:16:25.450Z,89.17
2019-02-05T02:17:25.465Z,89.39
2019-02-05T02:18:25.418Z,89.17
2019-02-05T02:19:25.437Z,88.85
2019-02-05T02:20:25.397Z,89.39
2019-02-05T02:21:25.390Z,89.06
2019-02-05T02:22:25.418Z,89.81
2019-02-05T02:23:25.364Z,89.06
2019-02-05T02:24:25.364Z,89.49
2019-02-05T02:25:25.340Z,89.39
2019-02-05T02:26:25.335Z,87.85
2019-02-05T02:27:25.539Z,85.73
2019-02-05T02:28:25.370Z,86.58
2019-02-05T02:29:25.299Z,87.32
2019-02-05T02:30:25.304Z,87.96
2019-02-05T02:31:25.282Z,88.75
2019-02-05T02:32:25.272Z,88.85
2019-02-05T02:33:25.270Z,88.28
2019-02-05T02:34:25.284Z,87.54
2019-02-05T02:35:25.240Z,87.43
2019-02-05T02:36:25.227Z,87.75
2019-02-05T02:37:25.916Z,88.18
2019-02-05T02:38:25.256Z,87.96
2019-02-05T02:39:25.201Z,88.49
2019-02-05T02:40:25.194Z,88.96
2019-02-05T02:41:25.176Z,89.06
2019-02-05T02:42:25.207Z,89.17
2019-02-05T02:43:25.163Z,89.28
2019-02-05T02:44:25.150Z,89.06
2019-02-05T02:45:25.159Z,88.96
2019-02-05T02:46:25.126Z,88.11
2019-02-05T02:47:27.703Z,88.53
2019-02-05T02:48:25.149Z,88.32
2019-02-05T02:49:25.107Z,89.39
2019-02-05T02:50:25.083Z,89.49
2019-02-05T02:51:25.078Z,89.17
2019-02-05T02:52:25.089Z,88.11
2019-02-05T02:53:25.365Z,87.32
2019-02-05T02:54:25.092Z,87.47
2019-02-05T02:55:25.031Z,87.47
2019-02-05T02:56:25.026Z,87.96
2019-02-05T02:57:25.024Z,88.53
2019-02-05T02:58:25.138Z,89.06
2019-02-05T02:59:24.997Z,89.17
2019-02-05T03:00:25.029Z,88.92
2019-02-05T03:01:24.983Z,89.70
2019-02-05T03:02:24.963Z,84.78
2019-02-05T03:03:24.987Z,84.25
2019-02-05T03:04:24.945Z,85.41
2019-02-05T03:05:24.935Z,87.43
2019-02-05T03:06:24.921Z,87.54
2019-02-05T03:07:24.917Z,87.79
2019-02-05T03:08:24.916Z,88.32
2019-02-05T03:09:24.965Z,87.79
2019-02-05T03:10:24.891Z,88.11
2019-02-05T03:11:24.879Z,88.11
2019-02-05T03:12:24.883Z,88.21
2019-02-05T03:13:24.852Z,88.07
2019-02-05T03:14:24.888Z,87.96
2019-02-05T03:15:24.839Z,87.43
2019-02-05T03:16:24.829Z,87.37
2019-02-05T03:17:24.804Z,88.00
2019-02-05T03:18:25.589Z,87.58
2019-02-05T04:51:34.400Z,88.18
2019-02-05T04:52:34.346Z,87.75
2019-02-05T04:53:34.239Z,87.65
2019-02-05T04:54:34.199Z,87.22
2019-02-05T04:55:34.225Z,87.22
2019-02-05T04:56:34.175Z,86.65
2019-02-05T04:57:34.161Z,85.69
2019-02-05T04:58:34.143Z,86.12
2019-02-05T04:59:34.212Z,86.86
2019-02-05T05:00:34.139Z,86.97
2019-02-05T05:01:34.160Z,86.79
2019-02-05T05:02:34.101Z,87.01
2019-02-05T05:03:34.092Z,87.29
2019-02-05T05:04:34.119Z,87.01
2019-02-05T05:05:34.176Z,85.16
2019-02-05T05:06:34.102Z,85.48
2019-02-05T05:07:34.096Z,86.76
2019-02-05T05:08:34.041Z,86.33
2019-02-05T05:09:34.102Z,87.12
2019-02-05T05:10:34.114Z,87.32
2019-02-05T05:11:34.009Z,86.58
2019-02-05T05:12:34.014Z,86.37
2019-02-05T05:13:34.034Z,85.16
2019-02-05T05:14:33.990Z,85.48
2019-02-05T05:15:33.967Z,85.94
2019-02-05T05:16:33.954Z,85.31
2019-02-05T05:17:33.954Z,85.94
2019-02-05T05:18:33.941Z,85.52
2019-02-05T05:19:33.994Z,82.23
2019-02-05T05:20:33.924Z,82.33
2019-02-05T05:21:33.929Z,82.01
2019-02-05T05:22:33.895Z,82.86
2019-02-05T05:23:33.989Z,82.76
2019-02-05T05:24:33.905Z,82.86
2019-02-05T05:25:34.777Z,84.03
2019-02-05T05:36:07.904Z,87.96
2019-02-05T05:38:56.726Z,88.11
2019-02-05T05:39:55.723Z,87.90
2019-02-05T05:40:55.701Z,87.47
2019-02-05T05:41:55.720Z,88.00
2019-02-05T05:42:55.678Z,87.54
2019-02-05T05:44:12.238Z,87.85
2019-02-05T05:46:57.803Z,87.37
2019-02-05T05:49:15.267Z,87.54
2019-02-05T05:50:15.444Z,87.79
2019-02-05T05:51:15.189Z,87.32
2019-02-05T05:52:16.193Z,86.79
2019-02-05T05:53:15.155Z,84.31
2019-02-05T05:54:15.660Z,84.63
2019-02-05T05:55:16.686Z,85.94
2019-02-05T05:56:15.254Z,86.90
2019-02-05T06:07:33.125Z,88.00
2019-02-05T06:08:33.072Z,87.90
2019-02-05T06:09:33.022Z,87.68
2019-02-05T06:10:33.042Z,88.00
2019-02-05T06:11:33.012Z,87.47
2019-02-05T06:12:32.992Z,87.58
2019-02-05T06:13:33.071Z,87.68
2019-02-05T06:14:32.974Z,88.00
2019-02-05T06:15:35.870Z,85.63
2019-02-05T06:16:32.949Z,84.45
2019-02-05T06:17:32.938Z,85.52
2019-02-05T06:18:32.929Z,86.16
2019-02-05T06:19:32.924Z,85.10
2019-02-05T06:20:32.909Z,85.73
2019-02-05T06:21:32.933Z,86.26
2019-02-05T06:22:32.891Z,86.16
2019-02-05T06:23:32.878Z,86.30
2019-02-05T06:24:32.871Z,86.30
2019-02-05T06:25:33.518Z,87.05
2019-02-05T06:26:34.544Z,87.75
2019-02-05T06:27:38.524Z,87.54
2019-02-05T06:28:34.694Z,87.75
2019-02-05T06:29:34.582Z,88.07
2019-02-05T07:22:20.272Z,85.55
2019-02-05T08:29:31.359Z,68.07
2019-02-05T08:30:31.282Z,66.34
2019-02-05T08:31:31.344Z,64.40
2019-02-05T08:32:31.265Z,63.45
2019-02-05T08:33:31.328Z,63.45
2019-02-05T08:34:31.211Z,63.32
2019-02-05T08:35:31.169Z,64.72
2019-02-05T08:36:31.226Z,65.78
2019-02-05T08:37:31.193Z,68.11
2019-02-05T08:38:31.141Z,67.05
2019-02-05T08:39:31.124Z,66.87
2019-02-05T08:40:31.251Z,65.25
2019-02-05T08:41:31.119Z,65.04
2019-02-05T08:42:31.176Z,65.47
2019-02-05T08:43:31.090Z,66.63
2019-02-05T08:44:31.089Z,66.71
2019-02-05T08:45:31.083Z,65.98
2019-02-05T08:46:31.054Z,64.07
2019-02-05T08:47:31.088Z,60.88
2019-02-05T08:48:31.031Z,60.08
2019-02-05T08:49:31.020Z,53.98
2019-02-05T08:50:31.013Z,54.19
2019-02-05T08:51:31.016Z,49.51
2019-02-05T08:52:30.995Z,48.38
2019-02-05T08:53:31.020Z,47.84
2019-02-05T08:54:30.971Z,47.86
2019-02-05T08:55:31.102Z,48.28
2019-02-05T08:56:30.952Z,48.07
2019-02-05T08:57:30.998Z,47.03
2019-02-05T08:58:31.478Z,46.28
2019-02-05T08:59:30.917Z,46.36
2019-02-05T09:00:30.912Z,46.11
2019-02-05T09:01:30.898Z,47.79
2019-02-05T09:02:30.928Z,42.54
2019-02-05T09:03:30.886Z,41.27
2019-02-05T09:04:30.870Z,42.48
2019-02-05T09:05:30.858Z,38.71
2019-02-05T09:06:30.855Z,38.17
2019-02-05T09:07:30.841Z,39.64
2019-02-05T09:08:30.862Z,40.22
2019-02-05T09:09:31.528Z,40.18
2019-02-05T09:10:30.818Z,41.41
2019-02-05T09:11:30.811Z,38.42
2019-02-05T09:12:30.788Z,39.44
2019-02-05T09:13:30.821Z,35.92
2019-02-05T09:14:30.770Z,37.54
2019-02-05T09:15:30.759Z,37.80
2019-02-05T09:16:30.746Z,39.20
2019-02-05T09:17:30.774Z,40.65
2019-02-05T09:18:30.748Z,40.75
2019-02-05T09:19:30.705Z,41.01
2019-02-05T09:20:30.697Z,41.18
2019-02-05T09:21:30.696Z,39.15
2019-02-05T09:22:30.681Z,38.75
2019-02-05T09:23:30.714Z,40.77
2019-02-05T09:24:30.670Z,38.57
2019-02-05T09:25:30.697Z,37.02
2019-02-05T09:26:30.656Z,36.68
2019-02-05T09:27:30.628Z,36.85
2019-02-05T09:28:30.658Z,35.32
2019-02-05T09:29:33.417Z,35.96
2019-02-05T09:30:30.591Z,36.09
2019-02-05T09:31:30.578Z,37.78
2019-02-05T09:32:35.026Z,38.75
2019-02-05T09:33:30.567Z,37.25
2019-02-05T09:34:30.581Z,38.29
2019-02-05T09:35:30.542Z,38.94
2019-02-05T09:36:30.530Z,40.31
2019-02-05T09:37:30.546Z,41.16
2019-02-05T09:38:30.500Z,41.39
2019-02-05T09:39:30.535Z,40.54
2019-02-05T09:40:30.485Z,41.16
2019-02-05T09:41:30.478Z,38.87
2019-02-05T09:42:30.473Z,41.14
2019-02-05T09:43:30.460Z,41.16
2019-02-05T09:44:31.552Z,39.67
2019-02-05T09:45:30.451Z,38.44
2019-02-05T09:46:30.436Z,37.54
2019-02-05T09:47:30.455Z,37.70
2019-02-05T09:48:30.440Z,38.96
2019-02-05T09:49:30.457Z,37.42
2019-02-05T09:50:32.942Z,38.25
2019-02-05T09:51:31.446Z,38.39
2019-02-05T09:52:30.440Z,41.30
2019-02-05T09:53:30.426Z,38.46
2019-02-05T09:54:30.412Z,38.75
2019-02-05T09:55:30.364Z,39.04
2019-02-05T09:56:30.481Z,37.16
2019-02-05T09:57:30.347Z,37.25
2019-02-05T09:58:30.348Z,35.00
2019-02-05T09:59:30.306Z,35.16
2019-02-05T10:00:30.357Z,34.63
2019-02-05T10:01:30.517Z,34.01
2019-02-05T10:02:30.321Z,35.77
2019-02-05T10:03:30.237Z,36.00
2019-02-05T10:04:30.238Z,35.16
2019-02-05T10:05:30.246Z,35.30
2019-02-05T10:06:30.420Z,35.52
2019-02-05T10:07:30.224Z,36.96
2019-02-05T10:08:30.194Z,35.66
2019-02-05T10:09:30.222Z,35.14
2019-02-05T10:10:30.170Z,34.55
2019-02-05T10:11:30.164Z,32.99
2019-02-05T10:12:30.149Z,32.75
2019-02-05T10:13:30.132Z,33.81
2019-02-05T10:14:30.117Z,33.21
2019-02-05T10:15:30.171Z,35.49
2019-02-05T10:16:30.094Z,35.30
2019-02-05T10:17:30.087Z,35.49
2019-02-05T10:18:30.072Z,35.78
2019-02-05T10:19:30.099Z,36.65
2019-02-05T10:20:30.054Z,38.42
2019-02-05T10:21:30.040Z,36.65
2019-02-05T10:22:30.030Z,36.30
2019-02-05T10:23:30.022Z,36.94
2019-02-05T10:24:30.049Z,35.80
2019-02-05T10:25:29.995Z,36.42
2019-02-05T10:26:30.002Z,36.58
2019-02-05T10:27:29.975Z,35.55
2019-02-05T10:28:29.963Z,34.06
2019-02-05T10:29:29.993Z,33.76
2019-02-05T10:30:30.534Z,35.14
2019-02-05T10:31:29.954Z,35.25
2019-02-05T10:32:29.936Z,34.72
2019-02-05T10:33:29.914Z,33.51
2019-02-05T10:34:34.109Z,34.19
2019-02-05T10:35:29.951Z,33.04
2019-02-05T10:36:29.922Z,32.84
2019-02-05T10:37:29.872Z,32.69
2019-02-05T10:38:29.854Z,31.51
2019-02-05T10:39:29.898Z,31.07
2019-02-05T10:40:29.837Z,30.71
2019-02-05T10:41:29.822Z,29.62
2019-02-05T10:42:29.862Z,31.10
2019-02-05T10:43:29.821Z,34.61
2019-02-05T10:44:30.519Z,33.45
2019-02-05T10:45:29.790Z,33.04
2019-02-05T10:46:29.790Z,32.94
2019-02-05T10:47:29.772Z,35.55
2019-02-05T10:48:29.802Z,35.63
2019-02-05T10:49:29.750Z,35.71
2019-02-05T10:50:29.734Z,33.92
2019-02-05T10:51:29.808Z,35.04
2019-02-05T10:52:30.506Z,33.92
2019-02-05T10:53:30.497Z,35.38
2019-02-05T10:54:30.494Z,36.01
2019-02-05T10:55:29.687Z,35.82
2019-02-05T10:56:29.685Z,36.37
2019-02-05T10:57:29.660Z,36.44
2019-02-05T10:58:29.646Z,34.99
2019-02-05T10:59:29.630Z,36.24
2019-02-05T11:00:29.671Z,35.36
2019-02-05T11:01:29.608Z,36.73
2019-02-05T11:02:29.607Z,36.47
2019-02-05T11:03:29.595Z,37.46
2019-02-05T11:04:29.587Z,37.35
2019-02-05T11:05:29.571Z,37.54
2019-02-05T11:06:29.624Z,37.21
2019-02-05T11:07:29.565Z,36.82
2019-02-05T11:08:29.552Z,37.01
2019-02-05T11:09:29.538Z,35.51
2019-02-05T11:10:29.530Z,34.59
2019-02-05T11:11:29.514Z,34.48
2019-02-05T11:12:29.564Z,35.80
2019-02-05T11:13:29.542Z,35.61
2019-02-05T11:14:29.495Z,37.28
2019-02-05T11:15:29.537Z,35.83
2019-02-05T11:16:29.689Z,39.42
2019-02-05T11:17:29.457Z,37.81
2019-02-05T11:18:29.548Z,36.15
2019-02-05T11:19:29.519Z,36.34
2019-02-05T11:20:29.583Z,37.98
2019-02-05T11:21:29.398Z,38.60
2019-02-05T11:22:29.394Z,38.60
2019-02-05T11:23:29.436Z,38.29
2019-02-05T11:24:29.404Z,36.30
2019-02-05T11:25:29.388Z,35.00
2019-02-05T11:26:29.388Z,33.04
2019-02-05T11:27:29.335Z,34.56
2019-02-05T11:28:29.537Z,33.57
2019-02-05T11:29:29.367Z,34.66
2019-02-05T11:30:29.379Z,33.64
2019-02-05T11:31:29.389Z,32.26
2019-02-05T11:32:30.496Z,31.43
2019-02-05T11:33:29.349Z,29.93
2019-02-05T11:34:29.340Z,32.44
2019-02-05T11:35:29.392Z,32.98
2019-02-05T11:36:31.095Z,34.54
2019-02-05T11:37:29.329Z,32.91
2019-02-05T11:38:29.362Z,34.08
2019-02-05T11:39:29.289Z,35.55
2019-02-05T11:40:29.318Z,36.18
2019-02-05T11:41:29.282Z,35.63
2019-02-05T11:42:29.295Z,35.07
2019-02-05T11:43:29.270Z,35.14
2019-02-05T11:44:29.300Z,32.63
2019-02-05T11:45:29.220Z,34.04
2019-02-05T11:46:29.153Z,34.37
2019-02-05T11:47:29.164Z,36.03
2019-02-05T11:48:29.192Z,34.62
2019-02-05T11:49:29.199Z,32.76
2019-02-05T11:50:29.169Z,33.78
2019-02-05T11:51:29.099Z,34.67
2019-02-05T11:52:29.079Z,34.35
2019-02-05T11:53:29.150Z,34.33
2019-02-05T11:54:30.010Z,35.05
2019-02-05T11:55:29.042Z,35.96
2019-02-05T11:56:29.990Z,35.74
2019-02-05T11:57:29.005Z,36.89
2019-02-05T11:58:30.008Z,39.17
2019-02-05T11:59:29.534Z,38.55
2019-02-05T12:00:32.711Z,38.57
2019-02-05T12:01:38.544Z,38.60
2019-02-05T12:02:29.954Z,38.96
2019-02-05T12:03:28.946Z,38.35
2019-02-05T12:04:28.994Z,40.19
2019-02-05T12:05:28.940Z,40.17
2019-02-05T12:06:28.911Z,40.37
2019-02-05T12:07:28.919Z,39.36
2019-02-05T12:08:28.935Z,39.24
2019-02-05T12:09:29.594Z,39.15
2019-02-05T12:10:41.626Z,38.64
2019-02-05T12:11:29.011Z,38.48
2019-02-05T12:12:29.631Z,38.07
2019-02-05T12:13:29.559Z,38.50
2019-02-05T12:14:28.981Z,39.01
2019-02-05T12:15:29.617Z,37.98
2019-02-05T12:16:29.930Z,38.14
2019-02-05T12:17:28.960Z,35.66
2019-02-05T12:18:28.817Z,35.14
2019-02-05T12:19:28.812Z,37.09
2019-02-05T12:20:29.492Z,36.61
2019-02-05T12:21:29.036Z,36.10
2019-02-05T12:22:28.753Z,37.04
2019-02-05T12:23:29.507Z,37.76
2019-02-05T12:24:28.726Z,37.93
2019-02-05T12:25:28.717Z,38.10
2019-02-05T12:26:29.016Z,38.43
2019-02-05T12:27:28.694Z,37.62
2019-02-05T12:28:29.502Z,38.41
2019-02-05T12:29:29.574Z,36.96
2019-02-05T12:30:30.524Z,37.51
2019-02-05T12:31:28.783Z,37.38
2019-02-05T12:32:28.635Z,36.87
2019-02-05T12:33:28.630Z,38.12
2019-02-05T12:34:28.639Z,38.43
2019-02-05T12:35:29.474Z,38.43
2019-02-05T12:36:29.229Z,38.82
2019-02-05T12:37:28.573Z,36.65
2019-02-05T12:38:28.619Z,35.52
2019-02-05T12:39:28.762Z,35.21
2019-02-05T12:40:28.550Z,34.15
2019-02-05T12:41:28.586Z,32.92
2019-02-05T12:42:28.578Z,33.06
2019-02-05T12:43:28.535Z,33.89
2019-02-05T12:44:28.555Z,33.57
2019-02-05T12:45:28.490Z,32.92
2019-02-05T12:46:28.526Z,32.87
2019-02-05T12:47:28.467Z,32.90
2019-02-05T12:48:28.455Z,33.95
2019-02-05T12:49:28.452Z,30.90
2019-02-05T12:50:28.477Z,31.53
2019-02-05T12:51:28.419Z,32.45
2019-02-05T12:52:28.462Z,33.29
2019-02-05T12:53:28.406Z,33.82
2019-02-05T12:54:28.402Z,33.53
2019-02-05T12:55:28.469Z,31.88
2019-02-05T12:56:28.411Z,31.16
2019-02-05T12:57:28.363Z,34.75
2019-02-05T12:58:28.401Z,35.89
2019-02-05T12:59:28.365Z,35.91
2019-02-05T13:00:28.327Z,36.32
2019-02-05T13:01:28.318Z,36.92
2019-02-05T13:02:28.627Z,38.29
2019-02-05T13:03:28.307Z,38.40
2019-02-05T13:04:28.339Z,38.21
2019-02-05T13:05:28.266Z,38.21
2019-02-05T13:06:28.263Z,38.82
2019-02-05T13:07:28.243Z,36.96
2019-02-05T13:08:28.227Z,36.92
2019-02-05T13:09:28.269Z,35.77
2019-02-05T13:10:28.212Z,35.75
2019-02-05T13:11:28.219Z,35.94
2019-02-05T13:12:28.357Z,36.07
2019-02-05T13:13:28.224Z,35.66
2019-02-05T13:14:28.203Z,34.92
2019-02-05T13:15:28.170Z,35.21
2019-02-05T13:16:28.157Z,34.08
2019-02-05T13:17:28.141Z,34.32
2019-02-05T13:18:28.220Z,35.58
2019-02-05T13:19:28.133Z,34.45
2019-02-05T13:20:28.113Z,34.06
2019-02-05T13:21:28.098Z,35.29
2019-02-05T13:22:28.103Z,34.16
2019-02-05T13:23:28.136Z,33.85
2019-02-05T13:24:28.077Z,34.16
2019-02-05T13:25:28.077Z,32.38
2019-02-05T13:26:28.109Z,32.18
2019-02-05T13:27:36.446Z,34.06
2019-02-05T13:28:28.209Z,34.04
2019-02-05T13:29:28.985Z,32.50
2019-02-05T13:30:28.091Z,34.67
2019-02-05T13:31:28.025Z,36.46
2019-02-05T13:32:28.070Z,39.26
2019-02-05T13:33:28.004Z,40.61
2019-02-05T13:34:28.096Z,41.11
2019-02-05T13:35:28.004Z,40.61
2019-02-05T13:36:28.267Z,41.24
2019-02-05T13:37:27.996Z,40.92
2019-02-05T13:38:29.995Z,40.20
2019-02-05T13:39:28.051Z,40.94
2019-02-05T13:40:28.010Z,42.41
2019-02-05T13:41:29.568Z,42.51
2019-02-05T13:42:27.953Z,42.93
2019-02-05T13:43:28.013Z,42.72
2019-02-05T13:44:28.052Z,43.77
2019-02-05T13:45:28.008Z,45.23
2019-02-05T13:46:28.642Z,45.59
2019-02-05T13:47:36.921Z,46.00
2019-02-05T13:48:29.668Z,45.75
2019-02-05T13:49:27.917Z,44.51
2019-02-05T13:50:32.911Z,44.62
2019-02-05T13:51:28.895Z,40.16
2019-02-05T13:52:29.013Z,37.06
2019-02-05T13:53:28.852Z,37.80
2019-02-05T13:54:27.828Z,38.43
2019-02-05T13:55:27.926Z,38.45
2019-02-05T13:56:28.881Z,39.73
2019-02-05T13:57:29.600Z,35.59
2019-02-05T13:58:29.664Z,38.59
2019-02-05T13:59:28.182Z,37.97
2019-02-05T14:00:29.631Z,40.04
2019-02-05T14:01:28.638Z,40.99
2019-02-05T14:02:29.634Z,42.42
2019-02-05T14:03:30.597Z,42.61
2019-02-05T14:04:27.750Z,43.95
2019-02-05T14:05:27.720Z,44.99
2019-02-05T14:06:27.649Z,45.94
2019-02-05T14:07:28.656Z,45.84
2019-02-05T14:08:27.693Z,45.69
2019-02-05T14:09:27.667Z,44.14
2019-02-05T14:10:28.519Z,44.35
2019-02-05T14:11:27.591Z,44.53
2019-02-05T14:12:27.549Z,44.76
2019-02-05T14:13:27.549Z,43.83
2019-02-05T14:14:27.557Z,43.19
2019-02-05T14:15:27.518Z,42.90
2019-02-05T14:16:27.493Z,42.38
2019-02-05T14:17:27.500Z,43.23
2019-02-05T14:18:27.471Z,38.90
2019-02-05T14:19:27.472Z,41.49
2019-02-05T14:20:27.498Z,42.32
2019-02-05T14:21:27.440Z,42.44
2019-02-05T14:22:27.453Z,40.06
2019-02-05T14:23:27.420Z,40.68
2019-02-05T14:24:27.412Z,41.32
2019-02-05T14:25:27.451Z,42.27
2019-02-05T14:26:27.431Z,42.58
2019-02-05T14:27:27.372Z,43.95
2019-02-05T14:28:27.377Z,43.23
2019-02-05T14:29:27.356Z,45.11
2019-02-05T14:30:27.342Z,44.16
2019-02-05T14:31:31.287Z,44.55
2019-02-05T14:32:27.346Z,43.18
2019-02-05T14:33:27.464Z,42.48
2019-02-05T14:34:27.297Z,39.99
2019-02-05T14:35:27.290Z,39.41
2019-02-05T14:36:27.273Z,40.47
2019-02-05T14:37:27.303Z,39.34
2019-02-05T14:38:27.399Z,39.03
2019-02-05T14:39:27.339Z,41.73
2019-02-05T14:40:27.254Z,43.29
2019-02-05T14:41:27.227Z,43.60
2019-02-05T14:42:27.228Z,47.31
2019-02-05T14:43:27.249Z,48.12
2019-02-05T14:44:27.205Z,47.58
2019-02-05T14:45:27.184Z,46.54
2019-02-05T14:46:27.176Z,45.59
2019-02-05T14:47:27.192Z,44.55
2019-02-05T14:48:27.204Z,44.01
2019-02-05T14:49:27.176Z,45.34
2019-02-05T14:50:27.128Z,46.48
2019-02-05T14:51:27.115Z,47.45
2019-02-05T14:52:27.274Z,47.97
2019-02-05T14:53:27.113Z,49.13
2019-02-05T14:54:27.098Z,50.20
2019-02-05T14:55:27.144Z,51.96
2019-02-05T14:56:27.187Z,51.10
2019-02-05T14:57:27.055Z,51.62
2019-02-05T14:58:27.062Z,54.13
2019-02-05T14:59:27.040Z,55.93
2019-02-05T15:00:27.016Z,56.49
2019-02-05T15:01:27.075Z,57.98
2019-02-05T15:02:27.005Z,59.53
2019-02-05T15:03:26.981Z,60.42
2019-02-05T15:04:26.971Z,60.31
2019-02-05T15:05:26.975Z,60.03
2019-02-05T15:06:26.980Z,60.27
2019-02-05T15:07:26.985Z,60.37
2019-02-05T15:08:27.096Z,60.68
2019-02-05T15:09:26.970Z,60.58
2019-02-05T15:10:33.460Z,60.47
2019-02-05T15:11:26.903Z,58.47
2019-02-05T15:12:26.901Z,59.44
2019-02-05T15:13:27.029Z,60.16
2019-02-05T15:14:26.935Z,60.40
2019-02-05T15:15:26.853Z,60.85
2019-02-05T15:16:26.856Z,62.67
2019-02-05T15:17:26.836Z,64.26
2019-02-05T15:18:26.948Z,63.12
2019-02-05T15:19:26.873Z,64.29
2019-02-05T15:20:26.837Z,65.78
2019-02-05T15:21:26.794Z,66.65
2019-02-05T15:22:26.803Z,67.59
2019-02-05T15:23:27.416Z,63.83
2019-02-05T15:24:36.920Z,66.37
2019-02-05T15:25:27.791Z,64.51
2019-02-05T15:26:26.816Z,67.55
2019-02-05T15:27:26.759Z,67.41
2019-02-05T15:28:26.732Z,69.01
2019-02-05T15:29:26.743Z,69.64
2019-02-05T15:30:26.728Z,68.21
2019-02-05T15:31:27.051Z,68.73
2019-02-05T15:32:27.028Z,67.79
2019-02-05T15:33:28.523Z,69.26
2019-02-05T15:34:26.697Z,64.65
2019-02-05T15:35:26.777Z,67.06
2019-02-05T15:36:27.552Z,69.39
2019-02-05T15:37:26.751Z,65.20
2019-02-05T15:38:26.644Z,62.04
2019-02-05T15:39:26.679Z,62.87
2019-02-05T15:40:27.463Z,63.57
2019-02-05T15:41:26.710Z,62.98
2019-02-05T15:42:26.873Z,63.40
2019-02-05T15:43:26.601Z,65.70
2019-02-05T15:44:26.772Z,67.30
2019-02-05T15:45:26.539Z,70.99
2019-02-05T15:46:26.565Z,70.68
2019-02-05T15:47:26.508Z,69.00
2019-02-05T15:48:26.508Z,67.33
2019-02-05T15:49:27.144Z,64.40
2019-02-05T15:50:26.488Z,68.38
2019-02-05T15:51:26.474Z,71.20
2019-02-05T15:52:26.502Z,70.37
2019-02-05T15:53:26.509Z,63.87
2019-02-05T15:54:26.435Z,67.85
2019-02-05T15:55:26.427Z,62.41
2019-02-05T15:56:26.424Z,67.36
2019-02-05T15:57:26.417Z,67.05
2019-02-05T15:58:26.598Z,65.58
2019-02-05T15:59:26.455Z,62.09
2019-02-05T16:00:26.470Z,64.18
2019-02-05T16:01:26.440Z,68.09
2019-02-05T16:02:26.413Z,67.46
2019-02-05T16:03:26.372Z,68.02
2019-02-05T16:04:26.386Z,65.16
2019-02-05T16:05:26.330Z,66.97
2019-02-05T16:06:26.321Z,70.11
2019-02-05T16:07:28.793Z,68.99
2019-02-05T16:08:26.303Z,71.41
2019-02-05T16:09:26.280Z,70.88
2019-02-05T16:10:26.505Z,71.75
2019-02-05T16:11:26.272Z,73.74
2019-02-05T16:12:26.247Z,73.64
2019-02-05T16:13:26.236Z,73.78
2019-02-05T16:14:26.226Z,74.93
2019-02-05T16:15:26.213Z,73.46
2019-02-05T16:16:26.258Z,73.50
2019-02-05T16:17:26.191Z,72.10
2019-02-05T16:18:26.185Z,71.36
2019-02-05T16:19:26.205Z,71.89
2019-02-05T16:20:26.159Z,73.04
2019-02-05T16:21:26.147Z,70.21
2019-02-05T16:22:26.187Z,69.90
2019-02-05T16:23:26.124Z,73.25
2019-02-05T16:24:26.940Z,73.68
2019-02-05T16:25:26.125Z,73.39
2019-02-05T16:26:26.291Z,72.76
2019-02-05T16:27:26.111Z,73.08
2019-02-05T16:28:26.462Z,72.34
2019-02-05T16:29:26.946Z,72.45
2019-02-05T16:30:26.084Z,72.80
2019-02-05T16:31:27.871Z,72.97
2019-02-05T16:32:26.956Z,74.58
2019-02-05T16:33:27.019Z,76.89
2019-02-05T16:34:26.524Z,78.47
2019-02-05T16:35:26.018Z,77.73
2019-02-05T16:36:26.981Z,77.52
2019-02-05T16:37:26.931Z,76.47
2019-02-05T16:38:25.963Z,75.10
2019-02-05T16:39:26.975Z,73.43
2019-02-05T16:40:29.449Z,74.05
2019-02-05T16:41:25.932Z,75.21
2019-02-05T16:42:25.933Z,76.57
2019-02-05T16:43:28.141Z,76.19
2019-02-05T16:44:25.911Z,77.87
2019-02-05T16:45:25.923Z,77.45
2019-02-05T16:46:25.953Z,76.61
2019-02-05T16:47:25.875Z,77.35
2019-02-05T16:48:25.864Z,78.61
2019-02-05T16:49:25.852Z,79.17
2019-02-05T16:50:25.843Z,77.80
2019-02-05T16:51:25.855Z,78.96
2019-02-05T16:52:27.453Z,75.81
2019-02-05T16:53:25.832Z,77.28
2019-02-05T16:54:25.793Z,77.28
2019-02-05T16:55:25.790Z,76.54
2019-02-05T16:56:25.780Z,76.33
2019-02-05T16:57:25.765Z,76.01
2019-02-05T16:58:25.794Z,77.00
2019-02-05T16:59:25.759Z,77.00
2019-02-05T17:00:25.739Z,77.28
2019-02-05T17:01:25.727Z,77.62
2019-02-05T17:02:28.977Z,76.37
2019-02-05T17:03:25.807Z,76.57
2019-02-05T17:04:36.642Z,77.73
2019-02-05T17:05:25.904Z,78.68
2019-02-05T17:06:25.669Z,79.14
2019-02-05T17:07:25.665Z,78.72
2019-02-05T17:08:25.660Z,77.24
2019-02-05T17:09:25.686Z,77.00
2019-02-05T17:10:25.633Z,77.35
2019-02-05T17:11:25.638Z,76.93
2019-02-05T17:12:25.603Z,77.24
2019-02-05T17:13:25.644Z,76.51
2019-02-05T17:14:25.731Z,74.58
2019-02-05T17:15:25.585Z,75.21
2019-02-05T17:16:25.602Z,76.79
2019-02-05T17:17:25.554Z,75.77
2019-02-05T17:18:26.420Z,76.61
2019-02-05T17:19:25.808Z,77.03
2019-02-05T17:20:25.533Z,77.07